createdAt,value
2023-01-12T00:01:57.548Z,73.60
2023-01-12T00:04:25.012Z,73.70
2023-01-12T00:06:52.268Z,73.80
2023-01-12T00:09:20.680Z,74.20
2023-01-12T00:11:47.981Z,74.60
2023-01-12T00:14:15.372Z,75.50
2023-01-12T00:16:42.676Z,75.00
2023-01-12T00:19:20.467Z,75.40
2023-01-12T00:21:54.346Z,75.40
2023-01-12T00:24:21.602Z,75.50
2023-01-12T00:26:50.055Z,75.90
2023-01-12T00:29:17.867Z,75.40
2023-01-12T00:31:45.658Z,75.50
2023-01-12T00:34:13.364Z,75.60
2023-01-12T00:36:40.831Z,75.30
2023-01-12T00:39:08.415Z,75.40
2023-01-12T00:41:56.515Z,75.40
2023-01-12T00:44:42.523Z,75.90
2023-01-12T00:47:10.754Z,75.90
2023-01-12T00:49:39.759Z,75.90
2023-01-12T00:52:11.355Z,76.30
2023-01-12T00:54:40.542Z,76.40
2023-01-12T00:57:09.725Z,76.70
2023-01-12T00:59:36.894Z,76.60
2023-01-12T01:02:05.384Z,76.50
2023-01-12T01:04:35.704Z,76.60
2023-01-12T01:07:03.901Z,76.40
2023-01-12T01:09:31.682Z,76.40
2023-01-12T01:11:59.119Z,76.50
2023-01-12T01:14:26.401Z,76.40
2023-01-12T01:16:53.727Z,76.70
2023-01-12T01:19:21.075Z,77.10
2023-01-12T01:21:48.147Z,77.20
2023-01-12T01:24:15.590Z,77.40
2023-01-12T01:26:42.929Z,77.20
2023-01-12T01:29:10.827Z,77.30
2023-01-12T01:31:38.023Z,77.30
2023-01-12T01:34:05.299Z,77.30
2023-01-12T01:36:32.601Z,77.60
2023-01-12T01:38:59.811Z,77.60
2023-01-12T01:41:29.937Z,77.60
2023-01-12T01:44:01.545Z,77.60
2023-01-12T01:46:45.647Z,77.70
2023-01-12T01:49:28.197Z,77.80
2023-01-12T01:52:00.257Z,77.80
2023-01-12T01:54:33.668Z,77.70
2023-01-12T01:57:00.976Z,77.80
2023-01-12T01:59:31.814Z,78.00
2023-01-12T02:01:59.860Z,78.10
2023-01-12T02:04:27.169Z,78.00
2023-01-12T02:06:56.284Z,78.30
2023-01-12T02:09:29.304Z,78.20
2023-01-12T02:12:15.556Z,78.10
2023-01-12T02:15:04.026Z,78.20
2023-01-12T02:17:40.998Z,78.40
2023-01-12T02:20:26.610Z,78.60
2023-01-12T02:23:25.516Z,78.70
2023-01-12T02:26:07.962Z,78.60
2023-01-12T02:29:05.884Z,78.80
2023-01-12T02:31:44.923Z,78.70
2023-01-12T02:34:29.803Z,78.50
2023-01-12T02:37:27.372Z,78.50
2023-01-12T02:40:18.653Z,78.70
2023-01-12T02:42:54.997Z,78.70
2023-01-12T02:45:34.707Z,78.90
2023-01-12T02:48:04.549Z,78.90
2023-01-12T02:50:40.112Z,78.90
2023-01-12T02:53:15.667Z,78.70
2023-01-12T02:55:43.972Z,78.80
2023-01-12T02:58:13.979Z,79.40
2023-01-12T03:00:44.191Z,79.60
2023-01-12T03:03:12.390Z,79.60
2023-01-12T03:05:43.800Z,79.70
2023-01-12T03:08:16.211Z,80.00
2023-01-12T03:11:00.916Z,79.60
2023-01-12T03:13:31.608Z,80.00
2023-01-12T03:16:00.004Z,80.00
2023-01-12T03:18:45.428Z,80.20
2023-01-12T03:21:20.678Z,80.60
2023-01-12T03:23:53.058Z,81.50
2023-01-12T03:26:25.584Z,81.40
2023-01-12T03:28:59.402Z,82.00
2023-01-12T03:31:26.813Z,82.50
2023-01-12T03:33:54.742Z,83.30
2023-01-12T03:36:39.210Z,83.50
2023-01-12T03:39:32.437Z,84.60
2023-01-12T03:42:23.713Z,84.40
2023-01-12T03:45:12.359Z,84.10
2023-01-12T03:47:41.355Z,84.90
2023-01-12T03:50:18.753Z,84.90
2023-01-12T03:52:46.771Z,85.20
2023-01-12T03:55:19.790Z,85.30
2023-01-12T03:57:47.706Z,86.30
2023-01-12T04:00:17.007Z,86.40
2023-01-12T04:02:44.781Z,85.80
2023-01-12T04:05:14.034Z,85.80
2023-01-12T04:07:41.321Z,85.80
2023-01-12T04:10:09.049Z,85.80
2023-01-12T04:12:38.149Z,85.90
2023-01-12T04:15:06.237Z,86.30
2023-01-12T04:17:33.659Z,86.00
2023-01-12T04:20:00.790Z,86.20
2023-01-12T04:22:43.258Z,86.10
2023-01-12T04:25:15.375Z,86.10
2023-01-12T04:27:47.069Z,86.00
2023-01-12T04:30:15.976Z,86.10
2023-01-12T04:32:44.371Z,86.10
2023-01-12T04:35:12.942Z,86.20
2023-01-12T04:37:40.759Z,86.30
2023-01-12T04:40:09.843Z,86.60
2023-01-12T04:42:56.105Z,86.30
2023-01-12T04:45:23.428Z,86.00
2023-01-12T04:47:51.045Z,86.00
2023-01-12T04:50:18.219Z,85.90
2023-01-12T04:52:45.471Z,86.30
2023-01-12T04:55:13.023Z,86.50
2023-01-12T04:57:40.161Z,86.60
2023-01-12T05:00:07.799Z,86.80
2023-01-12T05:02:35.092Z,86.80
2023-01-12T05:05:02.533Z,87.10
2023-01-12T05:07:29.817Z,87.20
2023-01-12T05:10:15.783Z,87.50
2023-01-12T05:12:43.039Z,87.80
2023-01-12T05:15:10.531Z,88.00
2023-01-12T05:17:37.754Z,87.90
2023-01-12T05:20:05.388Z,88.10
2023-01-12T05:22:32.657Z,88.40
2023-01-12T05:24:59.934Z,89.00
2023-01-12T05:27:27.096Z,89.20
2023-01-12T05:29:57.100Z,89.30
2023-01-12T05:32:24.435Z,89.30
2023-01-12T05:34:51.601Z,89.80
2023-01-12T05:37:18.727Z,89.80
2023-01-12T05:39:45.828Z,90.10
2023-01-12T05:42:31.928Z,90.10
2023-01-12T05:44:59.078Z,90.10
2023-01-12T05:47:28.459Z,90.10
2023-01-12T05:49:55.630Z,90.60
2023-01-12T05:52:22.887Z,90.20
2023-01-12T05:54:50.013Z,90.10
2023-01-12T05:57:17.347Z,90.20
2023-01-12T05:59:44.471Z,90.40
2023-01-12T06:02:13.994Z,90.80
2023-01-12T06:04:41.158Z,90.90
2023-01-12T06:07:11.338Z,91.00
2023-01-12T06:09:38.576Z,90.80
2023-01-12T06:12:25.139Z,90.70
2023-01-12T06:14:52.345Z,90.60
2023-01-12T06:17:20.012Z,90.60
2023-01-12T06:19:47.259Z,90.60
2023-01-12T06:22:14.599Z,90.60
2023-01-12T06:24:42.061Z,90.50
2023-01-12T06:27:09.150Z,90.50
2023-01-12T06:29:36.549Z,90.50
2023-01-12T06:32:03.840Z,90.50
2023-01-12T06:34:34.924Z,90.50
2023-01-12T06:37:03.173Z,90.60
2023-01-12T06:39:30.958Z,90.60
2023-01-12T06:42:16.730Z,90.50
2023-01-12T06:44:43.948Z,90.50
2023-01-12T06:47:11.180Z,90.50
2023-01-12T06:49:38.362Z,90.50
2023-01-12T06:52:07.143Z,90.50
2023-01-12T06:54:34.427Z,90.50
2023-01-12T06:57:01.553Z,90.50
2023-01-12T06:59:28.726Z,90.50
2023-01-12T07:01:56.209Z,90.50
2023-01-12T07:04:26.184Z,90.50
2023-01-12T07:06:55.359Z,90.50
2023-01-12T07:09:22.501Z,90.50
2023-01-12T07:11:49.659Z,90.60
2023-01-12T07:14:16.891Z,90.70
2023-01-12T07:16:44.063Z,90.50
2023-01-12T07:19:11.284Z,90.60
2023-01-12T07:21:38.459Z,90.60
2023-01-12T07:24:06.021Z,90.60
2023-01-12T07:26:33.432Z,90.60
2023-01-12T07:29:00.581Z,90.70
2023-01-12T07:31:28.265Z,90.70
2023-01-12T07:33:55.592Z,90.70
2023-01-12T07:36:23.151Z,90.70
2023-01-12T07:38:51.043Z,90.50
2023-01-12T07:41:37.132Z,90.60
2023-01-12T07:44:04.679Z,90.50
2023-01-12T07:46:31.845Z,90.50
2023-01-12T07:48:59.087Z,90.50
2023-01-12T07:51:26.566Z,90.60
2023-01-12T07:53:54.168Z,90.90
2023-01-12T07:56:21.328Z,91.00
2023-01-12T07:58:49.573Z,91.00
2023-01-12T08:01:17.257Z,91.00
2023-01-12T08:03:44.606Z,90.80
2023-01-12T08:06:11.907Z,90.90
2023-01-12T08:08:39.040Z,91.10
2023-01-12T08:11:08.338Z,91.20
2023-01-12T08:13:36.813Z,91.10
2023-01-12T08:16:14.359Z,91.20
2023-01-12T08:18:47.169Z,91.60
2023-01-12T08:21:20.279Z,91.40
2023-01-12T08:23:55.104Z,91.40
2023-01-12T08:26:29.175Z,91.40
2023-01-12T08:29:02.597Z,91.40
2023-01-12T08:31:31.461Z,91.40
2023-01-12T08:33:58.738Z,91.40
2023-01-12T08:36:27.858Z,91.40
2023-01-12T08:38:55.900Z,91.30
2023-01-12T08:41:32.972Z,91.30
2023-01-12T08:44:10.926Z,91.30
2023-01-12T08:46:39.717Z,91.30
2023-01-12T08:49:11.745Z,91.40
2023-01-12T08:51:44.844Z,91.30
2023-01-12T08:54:15.402Z,91.30
2023-01-12T08:56:43.057Z,91.30
2023-01-12T08:59:12.436Z,91.40
2023-01-12T09:01:40.000Z,91.30
2023-01-12T09:04:07.290Z,91.30
2023-01-12T09:06:40.358Z,91.30
2023-01-12T09:09:13.745Z,91.10
2023-01-12T09:11:42.477Z,91.20
2023-01-12T09:14:10.970Z,91.30
2023-01-12T09:16:38.349Z,91.30
2023-01-12T09:19:07.372Z,91.10
2023-01-12T09:21:38.525Z,91.00
2023-01-12T09:24:07.378Z,90.90
2023-01-12T09:26:43.267Z,90.70
2023-01-12T09:29:12.258Z,90.60
2023-01-12T09:31:42.273Z,90.50
2023-01-12T09:34:09.676Z,90.50
2023-01-12T09:36:38.711Z,90.40
2023-01-12T09:39:09.925Z,90.40
2023-01-12T09:41:59.381Z,90.40
2023-01-12T09:44:51.285Z,90.30
2023-01-12T09:47:24.265Z,90.40
2023-01-12T09:50:08.661Z,90.30
2023-01-12T09:53:02.399Z,89.90
2023-01-12T09:55:37.840Z,90.00
2023-01-12T09:58:13.663Z,89.30
2023-01-12T10:00:41.019Z,89.50
2023-01-12T10:03:25.883Z,83.90
2023-01-12T10:05:59.305Z,77.10
2023-01-12T10:08:58.519Z,81.20
2023-01-12T10:11:53.655Z,72.30
2023-01-12T10:14:33.144Z,75.10
2023-01-12T10:17:09.877Z,74.00
2023-01-12T10:19:54.574Z,74.70
2023-01-12T10:22:38.961Z,71.60
2023-01-12T10:25:27.635Z,67.70
2023-01-12T10:27:57.654Z,65.40
2023-01-12T10:30:30.113Z,65.80
2023-01-12T10:32:58.681Z,68.70
2023-01-12T10:35:27.705Z,63.20
2023-01-12T10:37:56.475Z,64.60
2023-01-12T10:40:32.699Z,67.30
2023-01-12T10:43:21.872Z,64.50
2023-01-12T10:45:55.016Z,65.00
2023-01-12T10:48:22.546Z,64.80
2023-01-12T10:51:19.060Z,65.00
2023-01-12T10:53:48.327Z,66.30
2023-01-12T10:56:27.946Z,66.90
2023-01-12T10:59:21.519Z,67.10
2023-01-12T11:02:03.282Z,64.60
2023-01-12T11:04:30.721Z,64.70
2023-01-12T11:07:05.090Z,63.30
2023-01-12T11:09:32.721Z,65.00
2023-01-12T11:12:06.655Z,64.80
2023-01-12T11:14:39.609Z,65.10
2023-01-12T11:17:13.152Z,64.90
2023-01-12T11:19:43.323Z,65.80
2023-01-12T11:22:18.189Z,66.00
2023-01-12T11:25:00.804Z,66.00
2023-01-12T11:27:52.646Z,65.80
2023-01-12T11:30:26.026Z,66.40
2023-01-12T11:32:55.075Z,64.70
2023-01-12T11:35:39.133Z,64.50
2023-01-12T11:38:13.709Z,65.20
2023-01-12T11:40:43.197Z,65.50
2023-01-12T11:43:32.080Z,63.80
2023-01-12T11:46:08.811Z,64.90
2023-01-12T11:48:44.141Z,66.00
2023-01-12T11:51:13.443Z,65.20
2023-01-12T11:53:42.374Z,65.60
2023-01-12T11:56:31.303Z,65.40
2023-01-12T11:59:44.607Z,65.60
2023-01-12T12:02:20.864Z,65.50
2023-01-12T12:04:48.026Z,65.60
2023-01-12T12:07:48.424Z,64.50
2023-01-12T12:10:23.884Z,65.20
2023-01-12T12:13:28.289Z,62.00
2023-01-12T12:16:01.567Z,64.30
2023-01-12T12:18:33.822Z,64.40
2023-01-12T12:21:09.727Z,64.60
2023-01-12T12:23:50.703Z,64.30
2023-01-12T12:26:34.668Z,63.80
2023-01-12T12:29:17.791Z,62.80
2023-01-12T12:32:23.826Z,61.40
2023-01-12T12:35:00.019Z,62.60
2023-01-12T12:38:02.323Z,61.90
2023-01-12T12:41:03.625Z,63.00
2023-01-12T12:43:52.510Z,63.00
2023-01-12T12:46:25.416Z,62.90
2023-01-12T12:49:27.608Z,62.50
2023-01-12T12:51:57.248Z,63.60
2023-01-12T12:54:26.480Z,63.80
2023-01-12T12:56:54.899Z,64.80
2023-01-12T12:59:34.174Z,64.00
2023-01-12T13:02:03.060Z,63.90
2023-01-12T13:04:42.448Z,64.30
2023-01-12T13:07:19.967Z,64.00
2023-01-12T13:09:49.098Z,64.00
2023-01-12T13:12:22.430Z,64.00
2023-01-12T13:15:14.795Z,64.30
2023-01-12T13:17:44.836Z,64.00
2023-01-12T13:20:24.469Z,64.70
2023-01-12T13:22:52.560Z,64.90
2023-01-12T13:25:19.653Z,65.00
2023-01-12T13:28:00.302Z,64.90
2023-01-12T13:30:32.133Z,64.60
2023-01-12T13:33:25.973Z,65.00
2023-01-12T13:35:53.169Z,64.90
2023-01-12T13:38:39.980Z,64.00
2023-01-12T13:41:12.898Z,65.00
2023-01-12T13:43:48.698Z,66.00
2023-01-12T13:46:20.349Z,64.90
2023-01-12T13:48:52.929Z,65.40
2023-01-12T13:51:34.202Z,65.30
2023-01-12T13:54:08.958Z,65.40
2023-01-12T13:56:36.564Z,65.60
2023-01-12T13:59:06.476Z,65.60
2023-01-12T14:01:39.609Z,65.60
2023-01-12T14:04:19.998Z,65.50
2023-01-12T14:07:08.360Z,65.60
2023-01-12T14:09:51.976Z,66.00
2023-01-12T14:12:31.028Z,65.90
2023-01-12T14:15:23.509Z,66.20
2023-01-12T14:18:03.640Z,66.60
2023-01-12T14:20:31.540Z,66.80
2023-01-12T14:23:17.100Z,66.90
2023-01-12T14:25:46.293Z,67.10
2023-01-12T14:28:23.559Z,67.80
2023-01-12T14:30:53.229Z,68.00
2023-01-12T14:33:24.991Z,68.50
2023-01-12T14:35:56.224Z,68.70
2023-01-12T14:38:26.539Z,68.40
2023-01-12T14:41:04.108Z,68.90
2023-01-12T14:43:54.663Z,68.90
2023-01-12T14:46:43.530Z,70.30
2023-01-12T14:49:28.893Z,69.80
2023-01-12T14:51:58.842Z,69.70
2023-01-12T14:54:33.121Z,69.50
2023-01-12T14:57:01.972Z,70.10
2023-01-12T14:59:32.459Z,70.00
2023-01-12T15:02:15.128Z,70.20
2023-01-12T15:05:21.724Z,70.20
2023-01-12T15:08:04.359Z,70.10
2023-01-12T15:10:37.264Z,70.50
2023-01-12T15:13:29.250Z,70.40
2023-01-12T15:16:16.138Z,70.50
2023-01-12T15:19:02.180Z,71.50
2023-01-12T15:21:49.722Z,71.00
2023-01-12T15:24:49.946Z,71.70
2023-01-12T15:27:19.857Z,71.30
2023-01-12T15:29:47.708Z,71.80
2023-01-12T15:32:24.732Z,71.50
2023-01-12T15:34:53.393Z,71.60
2023-01-12T15:37:38.666Z,71.30
2023-01-12T15:40:06.715Z,72.10
2023-01-12T15:42:33.874Z,73.60
2023-01-12T15:45:02.133Z,73.50
2023-01-12T15:47:29.388Z,73.50
2023-01-12T15:49:56.611Z,73.70
2023-01-12T15:52:27.822Z,74.70
2023-01-12T15:54:55.019Z,74.60
2023-01-12T15:57:23.478Z,74.40
2023-01-12T15:59:50.655Z,74.50
2023-01-12T16:02:31.857Z,74.70
2023-01-12T16:04:59.442Z,74.90
2023-01-12T16:07:26.570Z,74.50
2023-01-12T16:09:55.281Z,74.70
2023-01-12T16:12:23.569Z,74.60
2023-01-12T16:14:51.349Z,74.90
2023-01-12T16:17:18.902Z,74.60
2023-01-12T16:19:47.430Z,75.10
2023-01-12T16:22:22.077Z,75.10
2023-01-12T16:24:50.720Z,75.50
2023-01-12T16:27:19.613Z,75.30
2023-01-12T16:29:47.316Z,75.20
2023-01-12T16:32:15.048Z,75.60
2023-01-12T16:34:42.342Z,75.40
2023-01-12T16:37:14.867Z,75.50
2023-01-12T16:39:44.166Z,75.70
2023-01-12T16:42:11.617Z,75.70
2023-01-12T16:44:40.252Z,76.50
2023-01-12T16:47:11.346Z,76.00
2023-01-12T16:49:38.748Z,76.30
2023-01-12T16:52:07.954Z,76.90
2023-01-12T16:54:41.656Z,76.50
2023-01-12T16:57:13.295Z,76.90
2023-01-12T16:59:41.181Z,77.50
2023-01-12T17:02:11.075Z,77.50
2023-01-12T17:04:38.719Z,77.20
2023-01-12T17:07:06.617Z,77.20
2023-01-12T17:09:38.393Z,77.40
2023-01-12T17:12:07.560Z,77.40
2023-01-12T17:14:35.756Z,77.40
2023-01-12T17:17:06.485Z,77.40
2023-01-12T17:19:35.708Z,77.60
2023-01-12T17:22:06.384Z,77.80
2023-01-12T17:24:36.433Z,77.60
2023-01-12T17:27:03.843Z,78.20
2023-01-12T17:29:31.248Z,77.70
2023-01-12T17:32:04.359Z,78.20
2023-01-12T17:34:36.963Z,78.50
2023-01-12T17:37:08.216Z,78.60
2023-01-12T17:39:40.063Z,78.50
2023-01-12T17:42:26.552Z,78.10
2023-01-12T17:44:53.939Z,78.40
2023-01-12T17:47:21.225Z,77.90
2023-01-12T17:49:48.363Z,77.90
2023-01-12T17:52:15.951Z,77.90
2023-01-12T17:54:43.212Z,77.90
2023-01-12T17:57:10.535Z,78.00
2023-01-12T17:59:37.799Z,77.80
2023-01-12T18:02:05.092Z,77.60
2023-01-12T18:04:32.512Z,77.50
2023-01-12T18:06:59.798Z,77.60
2023-01-12T18:09:28.026Z,77.50
2023-01-12T18:11:55.243Z,77.50
2023-01-12T18:14:24.470Z,77.50
2023-01-12T18:16:51.645Z,77.90
2023-01-12T18:19:18.837Z,77.90
2023-01-12T18:21:46.040Z,77.80
2023-01-12T18:24:13.122Z,77.80
2023-01-12T18:26:41.726Z,77.70
2023-01-12T18:29:09.032Z,78.10
2023-01-12T18:31:42.415Z,78.10
2023-01-12T18:34:10.539Z,77.90
2023-01-12T18:36:40.973Z,78.40
2023-01-12T18:39:12.570Z,78.40
2023-01-12T18:41:58.330Z,79.20
2023-01-12T18:44:25.765Z,78.70
2023-01-12T18:47:11.977Z,78.70
2023-01-12T18:49:40.361Z,78.70
2023-01-12T18:52:29.672Z,78.50
2023-01-12T18:54:57.064Z,79.00
2023-01-12T18:57:27.323Z,79.80
2023-01-12T19:00:17.924Z,79.70
2023-01-12T19:02:47.945Z,79.50
2023-01-12T19:05:41.627Z,79.80
2023-01-12T19:08:28.446Z,79.70
2023-01-12T19:11:06.193Z,79.40
2023-01-12T19:13:52.059Z,79.60
2023-01-12T19:16:37.762Z,79.50
2023-01-12T19:19:05.543Z,79.30
2023-01-12T19:21:51.292Z,79.30
2023-01-12T19:24:37.162Z,79.50
2023-01-12T19:27:23.192Z,79.60
2023-01-12T19:29:50.823Z,79.70
2023-01-12T19:32:18.248Z,79.60
2023-01-12T19:34:45.474Z,79.70
2023-01-12T19:37:13.641Z,79.70
2023-01-12T19:40:03.096Z,79.80
2023-01-12T19:42:50.999Z,80.00
2023-01-12T19:45:18.316Z,80.40
2023-01-12T19:47:45.475Z,81.70
2023-01-12T19:50:14.754Z,81.40
2023-01-12T19:52:43.356Z,80.80
2023-01-12T19:55:13.304Z,80.70
2023-01-12T19:57:41.107Z,81.00
2023-01-12T20:00:14.150Z,81.00
2023-01-12T20:02:43.464Z,81.10
2023-01-12T20:05:13.468Z,81.00
2023-01-12T20:07:40.945Z,81.00
2023-01-12T20:10:09.098Z,80.90
2023-01-12T20:12:37.378Z,80.90
2023-01-12T20:15:04.931Z,80.90
2023-01-12T20:17:32.095Z,82.60
2023-01-12T20:19:59.363Z,82.90
2023-01-12T20:22:26.463Z,82.10
2023-01-12T20:24:53.804Z,81.80
2023-01-12T20:27:20.990Z,82.00
2023-01-12T20:29:48.375Z,81.70
2023-01-12T20:32:15.614Z,82.10
2023-01-12T20:34:42.789Z,81.60
2023-01-12T20:37:10.005Z,81.40
2023-01-12T20:39:41.439Z,81.20
2023-01-12T20:42:08.745Z,81.40
2023-01-12T20:44:37.270Z,81.50
2023-01-12T20:47:04.514Z,81.70
2023-01-12T20:49:31.727Z,81.80
2023-01-12T20:51:59.634Z,81.60
2023-01-12T20:54:26.915Z,81.50
2023-01-12T20:56:54.163Z,82.90
2023-01-12T20:59:21.411Z,83.30
2023-01-12T21:01:48.627Z,82.60
2023-01-12T21:04:15.943Z,82.20
2023-01-12T21:06:43.333Z,82.20
2023-01-12T21:09:10.860Z,82.00
2023-01-12T21:11:37.985Z,82.30
2023-01-12T21:14:07.954Z,82.40
2023-01-12T21:16:35.504Z,82.30
2023-01-12T21:19:02.888Z,84.00
2023-01-12T21:21:30.290Z,83.30
2023-01-12T21:23:57.456Z,82.80
2023-01-12T21:26:24.806Z,82.90
2023-01-12T21:28:52.264Z,82.70
2023-01-12T21:31:19.561Z,82.50
2023-01-12T21:33:46.814Z,82.80
2023-01-12T21:36:15.842Z,84.60
2023-01-12T21:38:43.034Z,83.80
2023-01-12T21:41:11.386Z,84.00
2023-01-12T21:43:38.643Z,84.50
2023-01-12T21:46:09.955Z,84.70
2023-01-12T21:48:37.159Z,84.20
2023-01-12T21:51:06.850Z,84.70
2023-01-12T21:53:34.852Z,83.90
2023-01-12T21:56:04.829Z,83.40
2023-01-12T21:58:34.434Z,83.60
2023-01-12T22:01:08.809Z,83.90
2023-01-12T22:03:36.119Z,84.30
2023-01-12T22:06:05.978Z,84.00
2023-01-12T22:08:38.118Z,84.00
2023-01-12T22:11:14.390Z,84.10
2023-01-12T22:13:43.531Z,84.00
2023-01-12T22:16:14.056Z,83.60
2023-01-12T22:18:46.242Z,83.80
2023-01-12T22:21:13.825Z,83.70
2023-01-12T22:23:41.067Z,83.90
2023-01-12T22:26:12.311Z,84.00
2023-01-12T22:28:42.032Z,83.70
2023-01-12T22:31:16.219Z,83.70
2023-01-12T22:33:48.348Z,83.90
2023-01-12T22:36:15.599Z,83.90
2023-01-12T22:38:42.748Z,84.00
2023-01-12T22:41:12.035Z,84.90
2023-01-12T22:43:42.634Z,84.60
2023-01-12T22:46:18.687Z,84.80
2023-01-12T22:48:50.368Z,85.50
2023-01-12T22:51:20.812Z,85.80
2023-01-12T22:53:48.730Z,85.50
2023-01-12T22:56:16.317Z,86.50
2023-01-12T22:58:48.332Z,86.20
2023-01-12T23:01:17.012Z,86.30
2023-01-12T23:03:44.490Z,86.00
2023-01-12T23:06:13.713Z,86.00
2023-01-12T23:08:42.778Z,86.10
2023-01-12T23:11:22.198Z,86.40
2023-01-12T23:13:50.354Z,86.70
2023-01-12T23:16:19.097Z,86.70
2023-01-12T23:18:47.308Z,86.80
2023-01-12T23:21:16.317Z,86.70
2023-01-12T23:23:55.434Z,86.70
2023-01-12T23:26:28.185Z,86.90
2023-01-12T23:28:58.257Z,87.30
2023-01-12T23:31:29.129Z,87.10
2023-01-12T23:33:57.205Z,87.00
2023-01-12T23:36:27.322Z,87.20
2023-01-12T23:38:56.099Z,87.50
2023-01-12T23:41:25.386Z,87.40
2023-01-12T23:43:56.173Z,87.60
2023-01-12T23:46:24.047Z,87.60
2023-01-12T23:48:52.742Z,87.40
2023-01-12T23:51:21.051Z,87.30
2023-01-12T23:53:48.864Z,87.30
2023-01-12T23:56:17.079Z,87.30
2023-01-12T23:58:44.433Z,87.20
